Elmendorf Air Force Base Anchorage US
ICAO: PAED
IATA:
Category: Medium
Scheduled Services:

Elevation: 212 ft
TransAlt. 18000 ft.

Airport Communications:
ANCHORAGE APP/DEP:118.6
DENALI:134.1
ATIS:124.3
RESCUE COORD CNTR:123.1
GND:121.8
OPS:38.1
PMSV METRO:34.66
PTD:37.22
SFA:32.71
TWR:127.2

PAED Zoom In..

If you have problems with the map follow the link
https://www.worldairports.se/pages/airport.php?
ICAO=PAED

Runways:

(A) RW 06 length 10000 ft width 200 ft
ILS 110.30 / hdg 62

(B) RW 16 length 7493 ft width 150 ft
---- / hdg 162

(C) RW 24 length 10000 ft width 200 ft
---- / hdg 242

(D) RW 34 length 7493 ft width 150 ft
---- / hdg 342

Location; PAED
Day. 26 / Time. 02.56 Zulu
* Altimeter: 29.47
* Temperature: -16° c. -3.2°f.
* Wind from: 030° Speed 09 kn.
Dewpoint: -23° c.
Visibility: 10 Statute Miles.
Clouds: Clear (automated report).

PAED 260256Z 03009KT 10SM CLR M16/M23 A2947 RMK AO2A SLP980 T11581228 57004


Wind From 030°
Speed 09 kn.

 
 
jpsmedia worldairports.se 2020   terms of use